createdAt,value
2022-09-11T04:30:39.540Z,20.33
2022-09-11T04:36:05.107Z,21.73
2022-09-11T04:41:27.617Z,22.48
2022-09-11T04:46:49.745Z,21.02
2022-09-11T04:52:12.154Z,19.85
2022-09-11T04:57:34.176Z,20.55
2022-09-11T05:02:56.012Z,19.95
2022-09-11T05:08:18.981Z,20.75
2022-09-11T05:13:42.803Z,21.90
2022-09-11T05:19:04.476Z,19.75
2022-09-11T05:24:27.214Z,25.15
2022-09-11T05:29:50.615Z,21.90
2022-09-11T05:35:11.868Z,23.02
2022-09-11T05:40:32.985Z,22.30
2022-09-11T05:45:56.432Z,24.77
2022-09-11T05:51:21.650Z,25.30
2022-09-11T05:56:43.830Z,24.10
2022-09-11T06:02:11.619Z,23.58
2022-09-11T06:07:42.151Z,22.48
2022-09-11T06:13:03.575Z,22.58
2022-09-11T06:18:27.005Z,21.05
2022-09-11T06:23:53.327Z,21.75
2022-09-11T06:29:16.104Z,21.58
2022-09-11T06:34:41.286Z,22.35
2022-09-11T06:40:05.507Z,22.05
2022-09-11T06:45:26.685Z,21.80
2022-09-11T06:50:47.875Z,21.55
2022-09-11T06:56:12.899Z,22.60
2022-09-11T07:01:35.491Z,21.50
2022-09-11T07:06:57.190Z,20.48
2022-09-11T07:12:23.879Z,21.02
2022-09-11T07:17:45.065Z,20.42
2022-09-11T07:23:08.803Z,21.15
2022-09-11T07:28:31.050Z,18.77
2022-09-11T07:33:53.235Z,19.73
2022-09-11T07:39:16.392Z,20.13
2022-09-11T07:44:57.336Z,19.92
2022-09-11T07:50:24.244Z,18.88
2022-09-11T07:55:45.845Z,17.42
2022-09-11T08:01:15.798Z,18.85
2022-09-11T08:06:38.361Z,17.77
2022-09-11T08:12:05.278Z,16.70
2022-09-11T08:17:29.562Z,16.70
2022-09-11T08:22:50.438Z,15.50
2022-09-11T08:28:13.231Z,14.95
2022-09-11T08:33:34.279Z,13.85
2022-09-11T08:38:58.552Z,13.15
2022-09-11T08:44:21.218Z,12.18
2022-09-11T08:49:47.988Z,11.75
2022-09-11T08:55:13.555Z,12.43
2022-09-11T09:00:48.171Z,9.90
2022-09-11T09:06:58.139Z,9.30
2022-09-11T09:12:51.470Z,9.23
2022-09-11T09:18:34.020Z,8.73
2022-09-11T09:23:58.855Z,9.27
2022-09-11T09:29:30.507Z,9.43
2022-09-11T09:34:57.617Z,7.78
2022-09-11T09:40:19.155Z,8.20
2022-09-11T09:46:11.506Z,7.75
2022-09-11T09:51:32.307Z,6.10
2022-09-11T09:57:02.342Z,6.10
2022-09-11T10:02:43.426Z,6.30
2022-09-11T10:08:06.816Z,6.10
2022-09-11T10:13:31.538Z,5.60
2022-09-11T10:18:54.263Z,6.50
2022-09-11T10:24:18.089Z,5.70
2022-09-11T10:29:50.395Z,5.40
2022-09-11T10:35:11.625Z,5.53
2022-09-11T10:40:32.683Z,5.13
2022-09-11T10:46:24.904Z,5.30
2022-09-11T10:52:07.987Z,5.32
2022-09-11T10:57:42.862Z,5.55
2022-09-11T11:03:17.097Z,5.15
2022-09-11T11:08:37.834Z,4.63
2022-09-11T11:14:31.072Z,4.57
2022-09-11T11:20:04.725Z,4.03
2022-09-11T11:25:34.731Z,4.10
2022-09-11T11:31:22.146Z,4.57
2022-09-11T11:36:53.987Z,4.57
2022-09-11T11:42:23.320Z,4.43
2022-09-11T11:47:47.288Z,4.78
2022-09-11T11:53:08.452Z,4.40
2022-09-11T11:58:47.308Z,4.30
2022-09-11T12:04:19.890Z,5.15
2022-09-11T12:09:46.984Z,6.03
2022-09-11T12:15:10.358Z,5.70
2022-09-11T12:20:43.412Z,5.70
2022-09-11T12:26:10.501Z,5.80
2022-09-11T12:31:51.033Z,6.00
2022-09-11T12:42:57.669Z,5.85
2022-09-11T12:48:22.477Z,6.40
2022-09-11T12:53:47.065Z,6.07
2022-09-11T12:59:10.991Z,6.13
2022-09-11T13:04:33.185Z,5.30
2022-09-11T13:09:57.176Z,4.20
2022-09-11T13:15:34.542Z,4.35
2022-09-11T13:21:12.301Z,4.47
2022-09-11T13:26:33.412Z,4.85
2022-09-11T13:31:57.576Z,4.47
2022-09-11T13:37:33.895Z,3.80
2022-09-11T13:42:56.148Z,4.20
2022-09-11T13:48:22.860Z,4.68
2022-09-11T13:53:46.655Z,4.50
2022-09-11T13:59:49.035Z,4.22
2022-09-11T14:05:15.380Z,4.85
2022-09-11T14:10:42.030Z,5.38
2022-09-11T14:16:07.484Z,5.07
2022-09-11T14:21:35.656Z,4.47
2022-09-11T14:26:58.299Z,5.15
2022-09-11T14:32:40.052Z,5.70
2022-09-11T14:38:00.876Z,5.55
2022-09-11T14:43:26.513Z,4.25
2022-09-11T14:48:47.411Z,2.92
2022-09-11T14:54:15.327Z,2.45
2022-09-11T14:59:36.118Z,2.42
2022-09-11T15:04:58.349Z,2.67
2022-09-11T15:10:20.293Z,2.90
2022-09-11T15:15:41.294Z,2.78
2022-09-11T15:21:02.195Z,2.45
2022-09-11T15:26:23.076Z,2.50
2022-09-11T15:31:44.283Z,2.78
2022-09-11T15:37:05.451Z,1.95
2022-09-11T15:42:26.520Z,2.10
2022-09-11T15:47:47.804Z,2.20
2022-09-11T15:53:09.663Z,2.20
2022-09-11T15:58:32.551Z,2.22
2022-09-11T16:03:55.672Z,2.50
2022-09-11T16:09:22.930Z,2.15
2022-09-11T16:14:44.147Z,2.67
2022-09-11T16:20:05.839Z,2.85
2022-09-11T16:25:27.955Z,2.63
2022-09-11T16:30:55.069Z,2.20
2022-09-11T16:36:18.771Z,1.60
2022-09-11T16:41:40.608Z,1.80
2022-09-11T16:47:01.730Z,1.58
2022-09-11T16:52:22.554Z,1.77
2022-09-11T16:57:44.438Z,1.50
2022-09-11T17:03:05.328Z,1.58
2022-09-11T17:08:26.613Z,1.90
2022-09-11T17:13:48.781Z,2.15
2022-09-11T17:19:10.514Z,2.80
2022-09-11T17:24:32.115Z,2.55
2022-09-11T17:29:53.216Z,2.67
2022-09-11T17:35:14.788Z,2.50
2022-09-11T17:40:36.488Z,3.13
2022-09-11T17:46:08.897Z,2.50
2022-09-11T17:51:30.104Z,2.83
2022-09-11T17:56:51.490Z,2.88
2022-09-11T18:02:14.298Z,3.15
2022-09-11T18:07:35.283Z,2.95
2022-09-11T18:12:56.279Z,2.58
2022-09-11T18:18:17.391Z,2.20
2022-09-11T18:23:44.626Z,2.60
2022-09-11T18:29:10.009Z,2.75
2022-09-11T18:34:31.192Z,2.80
2022-09-11T18:39:52.046Z,2.85
2022-09-11T18:50:35.862Z,3.00
2022-09-11T18:56:02.205Z,2.97
2022-09-11T19:01:25.674Z,2.85
2022-09-11T19:06:46.620Z,2.75
2022-09-11T19:12:08.079Z,2.83
2022-09-11T19:17:28.856Z,3.40
2022-09-11T19:28:11.897Z,2.80
2022-09-11T19:33:34.166Z,3.20
2022-09-11T19:38:56.098Z,2.90
2022-09-11T19:44:17.502Z,3.35
2022-09-11T19:49:38.367Z,3.30
2022-09-11T20:00:22.529Z,3.13
2022-09-11T20:05:44.705Z,2.92
2022-09-11T20:11:07.603Z,2.95
2022-09-11T20:16:30.560Z,3.75
2022-09-11T20:21:51.761Z,4.38
2022-09-11T20:32:36.611Z,4.05
2022-09-11T20:37:57.412Z,3.30
2022-09-11T20:43:18.189Z,3.90
2022-09-11T20:54:00.596Z,4.07
2022-09-11T20:59:21.648Z,3.58
2022-09-11T21:10:03.702Z,3.67
2022-09-11T21:15:24.679Z,3.40
2022-09-11T21:20:53.731Z,3.00
2022-09-11T21:26:16.940Z,3.60
2022-09-11T21:31:38.033Z,4.00
2022-09-11T21:42:19.597Z,3.60
2022-09-11T21:53:01.373Z,4.38
